sensor_id;sensor_type;location;lat;lon;timestamp;pressure;altitude;pressure_sealevel;temperature;humidity
64886;BME280;51514;52.206;5.114;2022-09-25T00:00:33;101689.66;;;11.77;79.85
64886;BME280;51514;52.206;5.114;2022-09-25T00:02:59;101694.59;;;11.72;79.85
64886;BME280;51514;52.206;5.114;2022-09-25T00:05:24;101701.56;;;11.65;79.96
64886;BME280;51514;52.206;5.114;2022-09-25T00:07:49;101698.59;;;11.58;79.81
64886;BME280;51514;52.206;5.114;2022-09-25T00:10:16;101704.56;;;11.52;79.77
64886;BME280;51514;52.206;5.114;2022-09-25T00:12:41;101712.53;;;11.54;79.96
64886;BME280;51514;52.206;5.114;2022-09-25T00:15:09;101710.69;;;11.54;80.12
64886;BME280;51514;52.206;5.114;2022-09-25T00:17:35;101710.69;;;11.54;80.16
64886;BME280;51514;52.206;5.114;2022-09-25T00:20:00;101699.88;;;11.54;79.99
64886;BME280;51514;52.206;5.114;2022-09-25T00:22:27;101707.00;;;11.55;80.33
64886;BME280;51514;52.206;5.114;2022-09-25T00:24:52;101708.84;;;11.55;80.13
64886;BME280;51514;52.206;5.114;2022-09-25T00:27:18;101717.81;;;11.46;80.27
64886;BME280;51514;52.206;5.114;2022-09-25T00:29:44;101713.69;;;11.42;80.10
64886;BME280;51514;52.206;5.114;2022-09-25T00:32:10;101719.09;;;11.42;80.33
64886;BME280;51514;52.206;5.114;2022-09-25T00:34:37;101721.91;;;11.40;80.63
64886;BME280;51514;52.206;5.114;2022-09-25T00:37:02;101718.50;;;11.38;80.17
64886;BME280;51514;52.206;5.114;2022-09-25T00:39:30;101721.34;;;11.37;80.01
64886;BME280;51514;52.206;5.114;2022-09-25T00:41:56;101716.25;;;11.33;80.26
64886;BME280;51514;52.206;5.114;2022-09-25T00:50:24;101706.31;;;11.34;79.33
64886;BME280;51514;52.206;5.114;2022-09-25T00:52:51;101707.16;;;11.34;79.31
64886;BME280;51514;52.206;5.114;2022-09-25T00:55:22;101700.06;;;11.33;79.51
64886;BME280;51514;52.206;5.114;2022-09-25T00:57:51;101707.28;;;11.33;79.84
64886;BME280;51514;52.206;5.114;2022-09-25T01:00:17;101707.44;;;11.31;79.74
64886;BME280;51514;52.206;5.114;2022-09-25T01:02:49;101712.97;;;11.30;79.73
64886;BME280;51514;52.206;5.114;2022-09-25T01:05:26;101719.63;;;11.26;80.17
64886;BME280;51514;52.206;5.114;2022-09-25T01:07:54;101713.38;;;11.25;80.33
64886;BME280;51514;52.206;5.114;2022-09-25T01:10:21;101710.69;;;11.25;80.48
64886;BME280;51514;52.206;5.114;2022-09-25T01:12:48;101708.69;;;11.27;80.27
64886;BME280;51514;52.206;5.114;2022-09-25T01:15:17;101707.72;;;11.28;80.04
64886;BME280;51514;52.206;5.114;2022-09-25T01:21:03;101705.28;;;11.25;79.71
64886;BME280;51514;52.206;5.114;2022-09-25T01:23:55;101708.00;;;11.25;79.70
64886;BME280;51514;52.206;5.114;2022-09-25T01:26:49;101706.59;;;11.21;79.24
64886;BME280;51514;52.206;5.114;2022-09-25T01:29:36;101701.47;;;11.18;79.60
64886;BME280;51514;52.206;5.114;2022-09-25T01:34:57;101707.72;;;11.09;79.97
64886;BME280;51514;52.206;5.114;2022-09-25T01:37:31;101700.88;;;11.05;79.75
64886;BME280;51514;52.206;5.114;2022-09-25T01:42:47;101707.13;;;10.86;80.19
64886;BME280;51514;52.206;5.114;2022-09-25T01:45:22;101705.53;;;10.84;80.36
64886;BME280;51514;52.206;5.114;2022-09-25T01:47:53;101701.84;;;10.85;80.58
64886;BME280;51514;52.206;5.114;2022-09-25T01:50:27;101703.69;;;10.84;80.74
64886;BME280;51514;52.206;5.114;2022-09-25T01:52:56;101701.84;;;10.85;80.22
64886;BME280;51514;52.206;5.114;2022-09-25T01:55:29;101710.94;;;10.84;80.05
64886;BME280;51514;52.206;5.114;2022-09-25T01:58:04;101707.38;;;10.83;80.61
64886;BME280;51514;52.206;5.114;2022-09-25T02:00:38;101704.81;;;10.82;80.81
64886;BME280;51514;52.206;5.114;2022-09-25T02:03:11;101700.88;;;10.86;80.71
64886;BME280;51514;52.206;5.114;2022-09-25T02:05:48;101703.44;;;10.87;80.34
64886;BME280;51514;52.206;5.114;2022-09-25T02:08:27;101696.31;;;10.86;80.29
64886;BME280;51514;52.206;5.114;2022-09-25T02:10:59;101699.75;;;10.88;80.23
64886;BME280;51514;52.206;5.114;2022-09-25T02:13:31;101698.75;;;10.89;80.15
64886;BME280;51514;52.206;5.114;2022-09-25T02:16:22;101701.31;;;10.91;79.97
64886;BME280;51514;52.206;5.114;2022-09-25T02:18:50;101704.88;;;10.91;80.12
64886;BME280;51514;52.206;5.114;2022-09-25T02:22:14;101704.00;;;10.91;79.89
64886;BME280;51514;52.206;5.114;2022-09-25T02:27:13;101702.56;;;10.87;79.93
64886;BME280;51514;52.206;5.114;2022-09-25T02:29:39;101711.94;;;10.83;79.64
64886;BME280;51514;52.206;5.114;2022-09-25T02:32:19;101708.09;;;10.76;79.89
64886;BME280;51514;52.206;5.114;2022-09-25T02:34:46;101711.91;;;10.73;79.92
64886;BME280;51514;52.206;5.114;2022-09-25T02:37:15;101703.69;;;10.75;79.89
64886;BME280;51514;52.206;5.114;2022-09-25T02:39:43;101697.44;;;10.74;79.79
64886;BME280;51514;52.206;5.114;2022-09-25T02:48:12;101694.00;;;10.72;79.64
64886;BME280;51514;52.206;5.114;2022-09-25T02:50:50;101686.91;;;10.71;79.35
64886;BME280;51514;52.206;5.114;2022-09-25T02:53:36;101689.91;;;10.68;79.58
64886;BME280;51514;52.206;5.114;2022-09-25T02:56:07;101692.59;;;10.68;79.34
64886;BME280;51514;52.206;5.114;2022-09-25T03:01:04;101694.84;;;10.63;79.57
64886;BME280;51514;52.206;5.114;2022-09-25T03:03:31;101694.00;;;10.63;79.89
64886;BME280;51514;52.206;5.114;2022-09-25T03:05:58;101696.28;;;10.57;79.67
64886;BME280;51514;52.206;5.114;2022-09-25T03:08:26;101699.38;;;10.53;80.13
64886;BME280;51514;52.206;5.114;2022-09-25T03:11:11;101698.50;;;10.52;80.37
64886;BME280;51514;52.206;5.114;2022-09-25T03:13:37;101700.22;;;10.53;80.22
64886;BME280;51514;52.206;5.114;2022-09-25T03:18:32;101700.34;;;10.42;80.00
64886;BME280;51514;52.206;5.114;2022-09-25T03:20:58;101697.47;;;10.34;80.28
64886;BME280;51514;52.206;5.114;2022-09-25T03:23:24;101705.19;;;10.18;80.19
64886;BME280;51514;52.206;5.114;2022-09-25T03:25:52;101704.84;;;10.11;80.49
64886;BME280;51514;52.206;5.114;2022-09-25T03:28:18;101704.84;;;10.11;80.43
64886;BME280;51514;52.206;5.114;2022-09-25T03:31:03;101705.41;;;10.05;80.49
64886;BME280;51514;52.206;5.114;2022-09-25T03:33:33;101691.22;;;10.03;80.49
64886;BME280;51514;52.206;5.114;2022-09-25T03:36:21;101697.66;;;9.91;80.79
64886;BME280;51514;52.206;5.114;2022-09-25T03:38:48;101703.81;;;9.72;81.02
64886;BME280;51514;52.206;5.114;2022-09-25T03:41:17;101702.53;;;9.56;81.08
64886;BME280;51514;52.206;5.114;2022-09-25T03:43:44;101700.31;;;9.61;81.42
64886;BME280;51514;52.206;5.114;2022-09-25T03:46:12;101704.13;;;9.58;81.46
64886;BME280;51514;52.206;5.114;2022-09-25T03:48:38;101703.66;;;9.53;81.87
64886;BME280;51514;52.206;5.114;2022-09-25T03:51:04;101699.41;;;9.50;82.49
64886;BME280;51514;52.206;5.114;2022-09-25T03:53:30;101701.13;;;9.51;83.21
64886;BME280;51514;52.206;5.114;2022-09-25T03:56:04;101699.72;;;9.57;82.89
64886;BME280;51514;52.206;5.114;2022-09-25T03:58:31;101699.59;;;9.59;82.67
64886;BME280;51514;52.206;5.114;2022-09-25T04:00:56;101705.38;;;9.54;82.92
64886;BME280;51514;52.206;5.114;2022-09-25T04:03:25;101694.59;;;9.54;83.23
64886;BME280;51514;52.206;5.114;2022-09-25T04:05:56;101702.28;;;9.59;83.43
64886;BME280;51514;52.206;5.114;2022-09-25T04:08:22;101703.59;;;9.64;83.15
64886;BME280;51514;52.206;5.114;2022-09-25T04:10:50;101697.81;;;9.69;82.84
64886;BME280;51514;52.206;5.114;2022-09-25T04:13:16;101692.88;;;9.74;83.12
64886;BME280;51514;52.206;5.114;2022-09-25T04:15:42;101687.69;;;9.82;83.14
64886;BME280;51514;52.206;5.114;2022-09-25T04:18:07;101674.66;;;9.87;82.98
64886;BME280;51514;52.206;5.114;2022-09-25T04:20:34;101680.66;;;9.91;82.31
64886;BME280;51514;52.206;5.114;2022-09-25T04:22:59;101678.69;;;9.93;82.64
64886;BME280;51514;52.206;5.114;2022-09-25T04:25:25;101676.97;;;9.92;82.34
64886;BME280;51514;52.206;5.114;2022-09-25T04:27:52;101671.72;;;9.90;82.09
64886;BME280;51514;52.206;5.114;2022-09-25T04:30:22;101685.72;;;9.84;82.09
64886;BME280;51514;52.206;5.114;2022-09-25T04:32:48;101680.25;;;9.74;82.73
64886;BME280;51514;52.206;5.114;2022-09-25T04:35:32;101680.94;;;9.67;83.08
64886;BME280;51514;52.206;5.114;2022-09-25T04:37:57;101675.13;;;9.62;83.10
64886;BME280;51514;52.206;5.114;2022-09-25T04:40:23;101679.03;;;9.58;82.90
64886;BME280;51514;52.206;5.114;2022-09-25T04:42:54;101673.91;;;9.55;83.24
64886;BME280;51514;52.206;5.114;2022-09-25T04:45:19;101674.78;;;9.55;83.02
64886;BME280;51514;52.206;5.114;2022-09-25T04:47:45;101679.91;;;9.58;82.98
64886;BME280;51514;52.206;5.114;2022-09-25T04:50:10;101672.25;;;9.63;83.18
64886;BME280;51514;52.206;5.114;2022-09-25T04:52:35;101676.16;;;9.70;83.27
64886;BME280;51514;52.206;5.114;2022-09-25T04:55:00;101678.31;;;9.76;82.31
64886;BME280;51514;52.206;5.114;2022-09-25T04:57:28;101670.94;;;9.78;82.26
64886;BME280;51514;52.206;5.114;2022-09-25T04:59:53;101668.97;;;9.80;81.84
64886;BME280;51514;52.206;5.114;2022-09-25T05:02:19;101669.97;;;9.79;81.51
64886;BME280;51514;52.206;5.114;2022-09-25T05:04:44;101670.09;;;9.78;81.33
64886;BME280;51514;52.206;5.114;2022-09-25T05:07:09;101668.00;;;9.81;81.41
64886;BME280;51514;52.206;5.114;2022-09-25T05:09:34;101673.50;;;9.80;81.03
64886;BME280;51514;52.206;5.114;2022-09-25T05:12:00;101681.59;;;9.59;81.61
64886;BME280;51514;52.206;5.114;2022-09-25T05:14:26;101677.94;;;9.39;81.65
64886;BME280;51514;52.206;5.114;2022-09-25T05:16:51;101679.72;;;9.29;81.89
64886;BME280;51514;52.206;5.114;2022-09-25T05:19:17;101669.38;;;9.34;82.77
64886;BME280;51514;52.206;5.114;2022-09-25T05:21:42;101677.66;;;9.42;82.19
64886;BME280;51514;52.206;5.114;2022-09-25T05:24:09;101674.59;;;9.47;81.49
64886;BME280;51514;52.206;5.114;2022-09-25T05:26:38;101676.91;;;9.51;81.60
64886;BME280;51514;52.206;5.114;2022-09-25T05:29:04;101681.00;;;9.56;81.79
64886;BME280;51514;52.206;5.114;2022-09-25T05:31:30;101678.06;;;9.59;81.83
64886;BME280;51514;52.206;5.114;2022-09-25T05:33:56;101686.75;;;9.62;81.91
64886;BME280;51514;52.206;5.114;2022-09-25T05:36:21;101675.19;;;9.50;81.79
64886;BME280;51514;52.206;5.114;2022-09-25T05:38:47;101686.59;;;9.43;81.91
64886;BME280;51514;52.206;5.114;2022-09-25T05:41:12;101678.56;;;9.32;82.10
64886;BME280;51514;52.206;5.114;2022-09-25T05:43:40;101674.56;;;9.26;82.26
64886;BME280;51514;52.206;5.114;2022-09-25T05:46:06;101668.59;;;9.23;82.23
64886;BME280;51514;52.206;5.114;2022-09-25T05:48:31;101672.25;;;9.22;81.97
64886;BME280;51514;52.206;5.114;2022-09-25T05:50:57;101678.78;;;9.19;82.63
64886;BME280;51514;52.206;5.114;2022-09-25T05:53:25;101677.19;;;9.17;82.66
64886;BME280;51514;52.206;5.114;2022-09-25T05:56:04;101672.78;;;9.15;82.74
64886;BME280;51514;52.206;5.114;2022-09-25T05:58:30;101679.88;;;9.17;82.66
64886;BME280;51514;52.206;5.114;2022-09-25T06:01:06;101685.25;;;9.17;82.51
64886;BME280;51514;52.206;5.114;2022-09-25T06:03:34;101677.94;;;9.19;82.24
64886;BME280;51514;52.206;5.114;2022-09-25T06:06:00;101684.72;;;9.23;82.35
64886;BME280;51514;52.206;5.114;2022-09-25T06:08:27;101679.84;;;9.28;82.92
64886;BME280;51514;52.206;5.114;2022-09-25T06:10:55;101684.69;;;9.34;82.52
64886;BME280;51514;52.206;5.114;2022-09-25T06:13:22;101678.91;;;9.38;82.70
64886;BME280;51514;52.206;5.114;2022-09-25T06:15:49;101675.81;;;9.43;82.54
64886;BME280;51514;52.206;5.114;2022-09-25T06:18:17;101680.94;;;9.46;83.18
64886;BME280;51514;52.206;5.114;2022-09-25T06:20:43;101679.72;;;9.50;83.28
64886;BME280;51514;52.206;5.114;2022-09-25T06:23:08;101683.81;;;9.54;83.32
64886;BME280;51514;52.206;5.114;2022-09-25T06:25:34;101679.16;;;9.56;83.60
64886;BME280;51514;52.206;5.114;2022-09-25T06:28:00;101681.47;;;9.61;83.75
64886;BME280;51514;52.206;5.114;2022-09-25T06:30:28;101688.41;;;9.63;84.31
64886;BME280;51514;52.206;5.114;2022-09-25T06:32:59;101686.78;;;9.72;84.38
64886;BME280;51514;52.206;5.114;2022-09-25T06:35:25;101694.50;;;9.86;84.39
64886;BME280;51514;52.206;5.114;2022-09-25T06:37:51;101695.28;;;9.98;85.08
64886;BME280;51514;52.206;5.114;2022-09-25T06:40:16;101681.84;;;10.07;85.21
64886;BME280;51514;52.206;5.114;2022-09-25T06:42:42;101686.31;;;10.18;85.38
64886;BME280;51514;52.206;5.114;2022-09-25T06:45:09;101687.09;;;10.30;85.52
64886;BME280;51514;52.206;5.114;2022-09-25T06:47:35;101689.81;;;10.39;85.71
64886;BME280;51514;52.206;5.114;2022-09-25T06:50:00;101690.69;;;10.49;86.33
64886;BME280;51514;52.206;5.114;2022-09-25T06:52:26;101696.28;;;10.57;86.74
64886;BME280;51514;52.206;5.114;2022-09-25T06:54:51;101692.59;;;10.68;87.49
64886;BME280;51514;52.206;5.114;2022-09-25T06:57:16;101697.44;;;10.84;87.44
64886;BME280;51514;52.206;5.114;2022-09-25T06:59:42;101697.31;;;10.95;87.59
64886;BME280;51514;52.206;5.114;2022-09-25T07:02:08;101696.91;;;11.09;87.50
64886;BME280;51514;52.206;5.114;2022-09-25T07:04:52;101698.47;;;11.21;88.16
64886;BME280;51514;52.206;5.114;2022-09-25T07:07:18;101699.91;;;11.35;88.40
64886;BME280;51514;52.206;5.114;2022-09-25T07:09:48;101702.28;;;11.48;89.25
64886;BME280;51514;52.206;5.114;2022-09-25T07:12:14;101696.72;;;11.59;89.69
64886;BME280;51514;52.206;5.114;2022-09-25T07:14:40;101695.59;;;11.71;89.73
64886;BME280;51514;52.206;5.114;2022-09-25T07:17:07;101700.84;;;11.82;90.20
64886;BME280;51514;52.206;5.114;2022-09-25T07:19:33;101694.28;;;11.94;89.79
64886;BME280;51514;52.206;5.114;2022-09-25T07:21:58;101698.50;;;12.06;89.96
64886;BME280;51514;52.206;5.114;2022-09-25T07:24:23;101695.47;;;12.19;90.07
64886;BME280;51514;52.206;5.114;2022-09-25T07:26:50;101700.69;;;12.30;89.95
64886;BME280;51514;52.206;5.114;2022-09-25T07:29:16;101700.38;;;12.43;89.86
64886;BME280;51514;52.206;5.114;2022-09-25T07:31:42;101688.50;;;12.54;89.66
64886;BME280;51514;52.206;5.114;2022-09-25T07:34:07;101693.84;;;12.63;89.55
64886;BME280;51514;52.206;5.114;2022-09-25T07:36:34;101698.19;;;12.74;89.08
64886;BME280;51514;52.206;5.114;2022-09-25T07:38:59;101706.09;;;12.85;89.00
64886;BME280;51514;52.206;5.114;2022-09-25T07:41:25;101696.06;;;12.95;89.05
64886;BME280;51514;52.206;5.114;2022-09-25T07:43:54;101699.38;;;13.07;89.17
64886;BME280;51514;52.206;5.114;2022-09-25T07:46:21;101706.31;;;13.19;89.67
64886;BME280;51514;52.206;5.114;2022-09-25T07:48:48;101704.03;;;13.32;89.65
64886;BME280;51514;52.206;5.114;2022-09-25T07:51:13;101703.50;;;13.46;89.61
64886;BME280;51514;52.206;5.114;2022-09-25T07:53:39;101694.81;;;13.61;89.39
64886;BME280;51514;52.206;5.114;2022-09-25T07:56:05;101698.78;;;13.74;88.53
64886;BME280;51514;52.206;5.114;2022-09-25T07:58:31;101693.97;;;13.86;87.91
64886;BME280;51514;52.206;5.114;2022-09-25T08:01:01;101684.56;;;13.98;87.14
64886;BME280;51514;52.206;5.114;2022-09-25T08:03:27;101684.97;;;14.11;87.13
64886;BME280;51514;52.206;5.114;2022-09-25T08:06:00;101691.97;;;14.22;86.83
64886;BME280;51514;52.206;5.114;2022-09-25T08:08:26;101694.25;;;14.35;86.74
64886;BME280;51514;52.206;5.114;2022-09-25T08:10:53;101699.44;;;14.46;86.93
64886;BME280;51514;52.206;5.114;2022-09-25T08:13:20;101703.88;;;14.55;86.45
64886;BME280;51514;52.206;5.114;2022-09-25T08:15:46;101700.16;;;14.64;86.14
64886;BME280;51514;52.206;5.114;2022-09-25T08:18:13;101700.19;;;14.72;84.95
64886;BME280;51514;52.206;5.114;2022-09-25T08:20:38;101699.22;;;14.81;84.50
64886;BME280;51514;52.206;5.114;2022-09-25T08:23:05;101699.91;;;14.91;83.99
64886;BME280;51514;52.206;5.114;2022-09-25T08:25:31;101696.88;;;15.03;83.23
64886;BME280;51514;52.206;5.114;2022-09-25T08:27:56;101698.94;;;15.17;82.98
64886;BME280;51514;52.206;5.114;2022-09-25T08:30:22;101696.25;;;15.33;81.67
64886;BME280;51514;52.206;5.114;2022-09-25T08:32:47;101693.88;;;15.46;80.55
64886;BME280;51514;52.206;5.114;2022-09-25T08:35:12;101694.56;;;15.64;80.22
64886;BME280;51514;52.206;5.114;2022-09-25T08:37:40;101693.53;;;15.74;78.96
64886;BME280;51514;52.206;5.114;2022-09-25T08:40:15;101692.00;;;15.87;77.57
64886;BME280;51514;52.206;5.114;2022-09-25T08:42:43;101686.03;;;15.92;76.40
64886;BME280;51514;52.206;5.114;2022-09-25T08:45:22;101691.28;;;15.93;76.18
64886;BME280;51514;52.206;5.114;2022-09-25T08:48:10;101693.69;;;15.96;76.67
64886;BME280;51514;52.206;5.114;2022-09-25T08:50:59;101690.44;;;15.93;76.53
64886;BME280;51514;52.206;5.114;2022-09-25T08:53:29;101688.25;;;15.88;76.11
64886;BME280;51514;52.206;5.114;2022-09-25T08:55:58;101686.03;;;15.84;75.50
64886;BME280;51514;52.206;5.114;2022-09-25T08:58:50;101688.44;;;15.79;75.02
64886;BME280;51514;52.206;5.114;2022-09-25T09:01:20;101684.38;;;15.75;75.50
64886;BME280;51514;52.206;5.114;2022-09-25T09:03:55;101686.72;;;15.69;74.87
64886;BME280;51514;52.206;5.114;2022-09-25T09:06:24;101684.72;;;15.63;74.98
64886;BME280;51514;52.206;5.114;2022-09-25T09:08:59;101685.41;;;15.57;75.07
64886;BME280;51514;52.206;5.114;2022-09-25T09:11:32;101684.72;;;15.63;75.61
64886;BME280;51514;52.206;5.114;2022-09-25T09:14:04;101684.03;;;15.78;75.62
64886;BME280;51514;52.206;5.114;2022-09-25T09:16:54;101678.19;;;15.97;74.83
64886;BME280;51514;52.206;5.114;2022-09-25T09:19:23;101677.66;;;16.10;73.69
64886;BME280;51514;52.206;5.114;2022-09-25T09:22:09;101685.09;;;16.24;72.61
64886;BME280;51514;52.206;5.114;2022-09-25T09:25:40;101683.84;;;16.34;70.67
64886;BME280;51514;52.206;5.114;2022-09-25T09:28:11;101676.16;;;16.46;71.45
64886;BME280;51514;52.206;5.114;2022-09-25T09:33:43;101671.31;;;16.72;65.70
64886;BME280;51514;52.206;5.114;2022-09-25T09:36:32;101670.72;;;16.85;66.73
64886;BME280;51514;52.206;5.114;2022-09-25T09:39:13;101679.34;;;16.97;68.00
64886;BME280;51514;52.206;5.114;2022-09-25T09:47:34;101675.88;;;17.26;63.80
64886;BME280;51514;52.206;5.114;2022-09-25T09:50:18;101683.31;;;17.32;63.45
64886;BME280;51514;52.206;5.114;2022-09-25T09:52:49;101675.09;;;17.40;64.52
64886;BME280;51514;52.206;5.114;2022-09-25T09:55:32;101668.22;;;17.44;63.93
64886;BME280;51514;52.206;5.114;2022-09-25T09:58:02;101684.97;;;17.41;62.99
64886;BME280;51514;52.206;5.114;2022-09-25T10:00:33;101674.00;;;17.49;62.67
64886;BME280;51514;52.206;5.114;2022-09-25T10:05:35;101667.38;;;17.66;60.95
64886;BME280;51514;52.206;5.114;2022-09-25T10:08:02;101663.25;;;17.70;61.79
64886;BME280;51514;52.206;5.114;2022-09-25T10:10:51;101655.84;;;17.79;59.24
64886;BME280;51514;52.206;5.114;2022-09-25T10:13:34;101667.69;;;17.71;59.48
64886;BME280;51514;52.206;5.114;2022-09-25T10:16:11;101663.66;;;17.59;58.85
64886;BME280;51514;52.206;5.114;2022-09-25T10:18:43;101665.00;;;17.63;60.89
64886;BME280;51514;52.206;5.114;2022-09-25T10:21:16;101668.34;;;17.73;60.31
64886;BME280;51514;52.206;5.114;2022-09-25T10:23:48;101668.44;;;17.80;58.86
64886;BME280;51514;52.206;5.114;2022-09-25T10:26:36;101652.06;;;17.80;57.78
64886;BME280;51514;52.206;5.114;2022-09-25T10:29:05;101659.97;;;17.90;58.04
64886;BME280;51514;52.206;5.114;2022-09-25T10:32:01;101659.63;;;17.93;56.43
64886;BME280;51514;52.206;5.114;2022-09-25T10:34:29;101655.75;;;18.02;57.93
64886;BME280;51514;52.206;5.114;2022-09-25T10:36:55;101646.63;;;18.09;57.02
64886;BME280;51514;52.206;5.114;2022-09-25T10:39:30;101653.50;;;18.20;56.72
64886;BME280;51514;52.206;5.114;2022-09-25T10:41:57;101649.25;;;18.17;55.70
64886;BME280;51514;52.206;5.114;2022-09-25T10:44:34;101644.84;;;18.16;55.44
64886;BME280;51514;52.206;5.114;2022-09-25T10:47:32;101649.72;;;18.21;56.42
64886;BME280;51514;52.206;5.114;2022-09-25T10:50:24;101637.41;;;18.25;56.17
64886;BME280;51514;52.206;5.114;2022-09-25T10:52:52;101645.78;;;18.38;57.47
64886;BME280;51514;52.206;5.114;2022-09-25T10:55:25;101643.50;;;18.42;54.94
64886;BME280;51514;52.206;5.114;2022-09-25T11:03:26;101629.06;;;18.63;52.82
64886;BME280;51514;52.206;5.114;2022-09-25T11:05:56;101630.00;;;18.70;54.47
64886;BME280;51514;52.206;5.114;2022-09-25T11:08:24;101626.69;;;18.74;53.84
64886;BME280;51514;52.206;5.114;2022-09-25T11:10:58;101636.56;;;18.75;55.45
64886;BME280;51514;52.206;5.114;2022-09-25T11:13:48;101626.25;;;18.56;54.75
64886;BME280;51514;52.206;5.114;2022-09-25T11:16:14;101619.09;;;18.40;54.96
64886;BME280;51514;52.206;5.114;2022-09-25T11:18:46;101620.53;;;18.36;54.81
64886;BME280;51514;52.206;5.114;2022-09-25T11:21:25;101619.56;;;18.44;54.51
64886;BME280;51514;52.206;5.114;2022-09-25T11:24:18;101612.28;;;18.51;52.76
64886;BME280;51514;52.206;5.114;2022-09-25T11:26:57;101613.34;;;18.65;53.20
64886;BME280;51514;52.206;5.114;2022-09-25T11:38:39;101592.16;;;18.88;53.57
64886;BME280;51514;52.206;5.114;2022-09-25T11:41:30;101595.94;;;18.87;54.57
64886;BME280;51514;52.206;5.114;2022-09-25T11:47:07;101585.69;;;18.74;53.02
64886;BME280;51514;52.206;5.114;2022-09-25T11:49:38;101583.56;;;18.70;53.79
64886;BME280;51514;52.206;5.114;2022-09-25T11:52:28;101584.34;;;18.49;54.23
64886;BME280;51514;52.206;5.114;2022-09-25T11:58:12;101577.59;;;18.30;53.70
64886;BME280;51514;52.206;5.114;2022-09-25T12:01:17;101576.41;;;18.18;53.30
64886;BME280;51514;52.206;5.114;2022-09-25T12:12:16;101583.22;;;17.93;57.78
64886;BME280;51514;52.206;5.114;2022-09-25T12:15:06;101584.59;;;17.74;59.36
64886;BME280;51514;52.206;5.114;2022-09-25T12:20:40;101585.75;;;17.42;61.99
64886;BME280;51514;52.206;5.114;2022-09-25T12:26:23;101587.75;;;17.10;63.44
64886;BME280;51514;52.206;5.114;2022-09-25T12:29:18;101586.13;;;17.01;63.29
64886;BME280;51514;52.206;5.114;2022-09-25T12:37:41;101583.16;;;16.88;63.61
64886;BME280;51514;52.206;5.114;2022-09-25T12:40:21;101576.75;;;16.81;63.54
64886;BME280;51514;52.206;5.114;2022-09-25T12:43:02;101579.19;;;16.76;63.85
64886;BME280;51514;52.206;5.114;2022-09-25T12:45:36;101583.97;;;16.74;64.10
64886;BME280;51514;52.206;5.114;2022-09-25T12:48:12;101575.50;;;16.61;63.40
64886;BME280;51514;52.206;5.114;2022-09-25T12:51:00;101572.97;;;16.59;65.23
64886;BME280;51514;52.206;5.114;2022-09-25T12:53:35;101569.22;;;16.60;64.69
64886;BME280;51514;52.206;5.114;2022-09-25T12:56:13;101567.88;;;16.64;65.48
64886;BME280;51514;52.206;5.114;2022-09-25T13:07:20;101571.81;;;16.62;64.63
64886;BME280;51514;52.206;5.114;2022-09-25T13:09:48;101559.72;;;16.64;64.22
64886;BME280;51514;52.206;5.114;2022-09-25T13:14:58;101568.53;;;16.66;64.68
64886;BME280;51514;52.206;5.114;2022-09-25T13:17:25;101568.06;;;16.63;65.04
64886;BME280;51514;52.206;5.114;2022-09-25T13:19:51;101566.34;;;16.62;64.88
64886;BME280;51514;52.206;5.114;2022-09-25T13:22:20;101552.03;;;16.60;65.21
64886;BME280;51514;52.206;5.114;2022-09-25T13:25:03;101556.97;;;16.56;65.13
64886;BME280;51514;52.206;5.114;2022-09-25T13:27:42;101555.28;;;16.55;66.07
64886;BME280;51514;52.206;5.114;2022-09-25T13:30:22;101556.81;;;16.58;66.00
64886;BME280;51514;52.206;5.114;2022-09-25T13:32:57;101548.63;;;16.58;66.30
64886;BME280;51514;52.206;5.114;2022-09-25T13:35:24;101549.50;;;16.58;66.68
64886;BME280;51514;52.206;5.114;2022-09-25T13:37:54;101549.13;;;16.61;67.13
64886;BME280;51514;52.206;5.114;2022-09-25T13:40:22;101552.03;;;16.60;66.06
64886;BME280;51514;52.206;5.114;2022-09-25T13:43:23;101542.53;;;16.64;67.49
64886;BME280;51514;52.206;5.114;2022-09-25T13:48:39;101539.91;;;16.70;67.98
64886;BME280;51514;52.206;5.114;2022-09-25T13:54:24;101543.66;;;16.69;67.21
64886;BME280;51514;52.206;5.114;2022-09-25T13:56:51;101529.88;;;16.71;67.39
64886;BME280;51514;52.206;5.114;2022-09-25T13:59:22;101531.38;;;16.73;68.05
64886;BME280;51514;52.206;5.114;2022-09-25T14:01:56;101526.22;;;16.78;67.57
64886;BME280;51514;52.206;5.114;2022-09-25T14:04:27;101529.75;;;16.87;67.97
64886;BME280;51514;52.206;5.114;2022-09-25T14:07:03;101522.03;;;16.91;68.73
64886;BME280;51514;52.206;5.114;2022-09-25T14:09:30;101513.50;;;16.94;67.74
64886;BME280;51514;52.206;5.114;2022-09-25T14:12:16;101512.47;;;16.95;65.32
64886;BME280;51514;52.206;5.114;2022-09-25T14:14:44;101507.13;;;17.01;66.48
64886;BME280;51514;52.206;5.114;2022-09-25T14:17:18;101501.97;;;17.06;65.96
64886;BME280;51514;52.206;5.114;2022-09-25T14:19:50;101498.50;;;17.12;64.70
64886;BME280;51514;52.206;5.114;2022-09-25T14:22:21;101495.03;;;17.19;64.32
64886;BME280;51514;52.206;5.114;2022-09-25T14:24:51;101493.25;;;17.26;64.64
64886;BME280;51514;52.206;5.114;2022-09-25T14:27:21;101490.44;;;17.19;63.06
64886;BME280;51514;52.206;5.114;2022-09-25T14:29:48;101483.56;;;17.08;60.95
64886;BME280;51514;52.206;5.114;2022-09-25T14:32:52;101488.06;;;17.01;61.20
64886;BME280;51514;52.206;5.114;2022-09-25T14:38:51;101484.28;;;17.02;61.94
64886;BME280;51514;52.206;5.114;2022-09-25T14:41:47;101480.19;;;17.06;64.11
64886;BME280;51514;52.206;5.114;2022-09-25T14:46:52;101484.28;;;17.02;62.62
64886;BME280;51514;52.206;5.114;2022-09-25T14:49:25;101479.69;;;17.03;63.14
64886;BME280;51514;52.206;5.114;2022-09-25T14:51:58;101476.59;;;17.06;62.87
64886;BME280;51514;52.206;5.114;2022-09-25T14:54:28;101473.69;;;17.07;64.53
64886;BME280;51514;52.206;5.114;2022-09-25T14:56:56;101467.13;;;17.17;64.46
64886;BME280;51514;52.206;5.114;2022-09-25T15:01:53;101469.19;;;17.14;64.27